Filia Joy — 3FIN9 — position and weather

sailwx.info

Track history (hours):
 
Tides and Currents Weather Stations Pressure Air Temp Water Temp Dewpoint Dewpoint Depression Visibility Wind Speed Wind Dir Waves Ship Positions

Filia Joy

Last reported at 2017-May-29 22:30 UTC. Time now 2017-May-29 22:49 UTC.
Position N 49°18' W 123°05'.

Length 190 m; draft 6.7 m.

Type: Cargo ship. MMSI: 371999000.

Date/timePositionNaut miles runAvg speedWind from/ knotsBaromVisibWave heightAir tempDewpointWater temp
2017-May-29 22:30N 49°18' W 123°05'0 0.4
2017-May-29 22:00N 49°18' W 123°05'1 2.9
2017-May-29 21:30N 49°18' W 123°07'611.4
2017-May-29 21:00N 49°18' W 123°16'612.6
2017-May-29 20:30N 49°12' W 123°20'713.9
2017-May-29 20:00N 49°05' W 123°21'712.9
2017-May-29 19:28N 48°60' W 123°15'612.5
2017-May-29 19:00N 48°56' W 123°08'912.5
2017-May-29 18:19N 48°49' W 123°00'4 9.1
2017-May-29 17:50N 48°46' W 123°05'411.7
2017-May-29 17:30N 48°44' W 123°10'510.0
2017-May-29 17:00N 48°40' W 123°14'611.9
2017-May-29 16:30N 48°34' W 123°12'612.0
2017-May-29 16:00N 48°28' W 123°10'611.1
2017-May-29 15:29N 48°23' W 123°15'612.0
2017-May-29 15:01N 48°21' W 123°23'610.8
2017-May-29 14:28N 48°16' W 123°26'1212.2
2017-May-29 13:30N 48°13' W 123°43'713.5
2017-May-29 13:00N 48°13' W 123°53'714.4
2017-May-29 12:30N 48°16' W 124°03'713.7
2017-May-29 12:00N 48°19' W 124°12'612.1
2017-May-29 11:30N 48°21' W 124°21'612.5
2017-May-29 11:00N 48°24' W 124°29'612.5
2017-May-29 10:30N 48°27' W 124°37'611.8
2017-May-29 10:00N 48°29' W 124°46'612.7
2017-May-29 09:30N 48°29' W 124°55'612.3
2017-May-29 09:00N 48°29' W 125°05'612.5
2017-May-29 08:30N 48°26' W 125°12'712.4
2017-May-29 07:59N 48°22' W 125°20'713.1
2017-May-29 07:28N 48°18' W 125°29'613.0
2017-May-29 07:00N 48°14' W 125°36'713.0
2017-May-29 06:29N 48°10' W 125°44'6012.7
2017-May-29 01:47N 47°36' W 126°57'17811.1
2017-May-28 09:43N 47°13' W 131°18'313.0
2017-May-28 09:29N 47°14' W 131°22'3713.0
2017-May-28 06:39N 47°29' W 132°12'312.9
2017-May-28 06:26N 47°30' W 132°16'1012.8
2017-May-28 05:40N 47°34' W 132°29'512.7
2017-May-28 05:18N 47°36' W 132°35'1412.7
2017-May-28 04:12N 47°42' W 132°54'312.9
2017-May-28 03:58N 47°43' W 132°58'  
Track history (hours):
 
Tides and Currents Weather Stations Pressure Air Temp Water Temp Dewpoint Dewpoint Depression Visibility Wind Speed Wind Dir Waves Ship Positions

Filia Joy

Last reported at 2017-May-29 22:30 UTC. Time now 2017-May-29 22:49 UTC.
Position N 49°18' W 123°05'.

Length 190 m; draft 6.7 m.

Type: Cargo ship. MMSI: 371999000.

Date/timePositionNaut miles runAvg speedWind from/ knotsBaromVisibWave heightAir tempDewpointWater temp
2017-May-29 22:30N 49°18' W 123°05'0 0.4
2017-May-29 22:00N 49°18' W 123°05'1 2.9
2017-May-29 21:30N 49°18' W 123°07'611.4
2017-May-29 21:00N 49°18' W 123°16'612.6
2017-May-29 20:30N 49°12' W 123°20'713.9
2017-May-29 20:00N 49°05' W 123°21'712.9
2017-May-29 19:28N 48°60' W 123°15'612.5
2017-May-29 19:00N 48°56' W 123°08'912.5
2017-May-29 18:19N 48°49' W 123°00'4 9.1
2017-May-29 17:50N 48°46' W 123°05'411.7
2017-May-29 17:30N 48°44' W 123°10'510.0
2017-May-29 17:00N 48°40' W 123°14'611.9
2017-May-29 16:30N 48°34' W 123°12'612.0
2017-May-29 16:00N 48°28' W 123°10'611.1
2017-May-29 15:29N 48°23' W 123°15'612.0
2017-May-29 15:01N 48°21' W 123°23'610.8
2017-May-29 14:28N 48°16' W 123°26'1212.2
2017-May-29 13:30N 48°13' W 123°43'713.5
2017-May-29 13:00N 48°13' W 123°53'714.4
2017-May-29 12:30N 48°16' W 124°03'713.7
2017-May-29 12:00N 48°19' W 124°12'612.1
2017-May-29 11:30N 48°21' W 124°21'612.5
2017-May-29 11:00N 48°24' W 124°29'612.5
2017-May-29 10:30N 48°27' W 124°37'611.8
2017-May-29 10:00N 48°29' W 124°46'612.7
2017-May-29 09:30N 48°29' W 124°55'612.3
2017-May-29 09:00N 48°29' W 125°05'612.5
2017-May-29 08:30N 48°26' W 125°12'712.4
2017-May-29 07:59N 48°22' W 125°20'713.1
2017-May-29 07:28N 48°18' W 125°29'613.0
2017-May-29 07:00N 48°14' W 125°36'713.0
2017-May-29 06:29N 48°10' W 125°44'6012.7
2017-May-29 01:47N 47°36' W 126°57'17811.1
2017-May-28 09:43N 47°13' W 131°18'313.0
2017-May-28 09:29N 47°14' W 131°22'3713.0
2017-May-28 06:39N 47°29' W 132°12'312.9
2017-May-28 06:26N 47°30' W 132°16'1012.8
2017-May-28 05:40N 47°34' W 132°29'512.7
2017-May-28 05:18N 47°36' W 132°35'1412.7
2017-May-28 04:12N 47°42' W 132°54'312.9
2017-May-28 03:58N 47°43' W 132°58'  

Dump ship's entire track history